Time;durP1;ratioP1;P1;durP2;ratioP2;P2;SDS_P1;SDS_P2;PMS_P1;PMS_P2;Temp;Humidity;BMP_temperature;BMP_pressure;BME280_temperature;BME280_humidity;BME280_pressure;Samples;Min_cycle;Max_cycle;Signal;HPM_P1;HPM_P2
2022/10/09 00:00:10;;;;;;;8.83;3.10;;;10.10;99.90;;;;;;5056390;28;20056;-66
2022/10/09 00:02:36;;;;;;;8.27;2.60;;;10.10;99.90;;;;;;5073773;28;20131;-66
2022/10/09 00:05:01;;;;;;;9.90;3.20;;;10.10;99.90;;;;;;5073607;28;20390;-66
2022/10/09 00:07:27;;;;;;;8.00;3.00;;;10.10;99.90;;;;;;5073890;28;20048;-66
2022/10/09 00:09:53;;;;;;;12.63;2.83;;;10.10;99.90;;;;;;5073358;28;20083;-66
2022/10/09 00:12:18;;;;;;;9.13;2.83;;;10.00;99.90;;;;;;5073588;28;20117;-66
2022/10/09 00:14:44;;;;;;;11.57;3.20;;;9.90;99.90;;;;;;5073232;28;20131;-66
2022/10/09 00:17:10;;;;;;;8.70;3.07;;;10.00;99.90;;;;;;5055915;28;20388;-66
2022/10/09 00:19:35;;;;;;;8.90;2.63;;;9.90;99.90;;;;;;5073505;28;20047;-66
2022/10/09 00:22:01;;;;;;;9.00;3.43;;;10.00;99.90;;;;;;5073440;28;20469;-66
2022/10/09 00:24:26;;;;;;;8.63;2.53;;;9.90;99.90;;;;;;5073449;28;20079;-66
2022/10/09 00:26:52;;;;;;;8.50;2.53;;;9.90;99.90;;;;;;5073048;28;20074;-66
2022/10/09 00:29:18;;;;;;;7.73;2.67;;;9.90;99.90;;;;;;5073278;28;20076;-66
2022/10/09 00:31:43;;;;;;;8.23;2.90;;;9.90;99.90;;;;;;5055423;28;20492;-67
2022/10/09 00:34:09;;;;;;;9.97;2.30;;;9.90;99.90;;;;;;5073157;28;20130;-66
2022/10/09 00:36:35;;;;;;;9.03;2.47;;;9.90;99.90;;;;;;5073232;28;20080;-66
2022/10/09 00:39:00;;;;;;;7.07;2.23;;;9.80;99.90;;;;;;5054995;28;20052;-66
2022/10/09 00:41:29;;;;;;;7.10;2.20;;;9.80;99.90;;;;;;5073189;28;20544;-66
2022/10/09 00:43:58;;;;;;;7.47;2.30;;;9.80;99.90;;;;;;5072674;28;20059;-69
2022/10/09 00:46:44;;;;;;;11.70;3.20;;;9.80;99.90;;;;;;5056731;28;20291;-69
2022/10/09 00:49:16;;;;;;;12.07;3.00;;;9.80;99.90;;;;;;5073514;28;20277;-68
2022/10/09 00:51:44;;;;;;;6.43;2.17;;;9.80;99.90;;;;;;5055721;28;20286;-71
2022/10/09 00:54:13;;;;;;;8.20;2.43;;;9.80;99.90;;;;;;5073483;28;20279;-68
2022/10/09 00:56:38;;;;;;;7.43;2.10;;;9.70;99.90;;;;;;5073489;28;20366;-69
2022/10/09 00:59:05;;;;;;;11.00;2.60;;;9.70;99.90;;;;;;5073425;28;20832;-69
2022/10/09 01:01:31;;;;;;;12.83;2.67;;;9.70;99.90;;;;;;5073429;28;20113;-69
2022/10/09 01:03:57;;;;;;;7.63;2.50;;;9.60;99.90;;;;;;5073642;28;20283;-69
2022/10/09 01:06:39;;;;;;;10.23;2.43;;;9.60;99.90;;;;;;5055928;28;20052;-68
2022/10/09 01:09:18;;;;;;;10.17;3.73;;;9.60;99.90;;;;;;5073600;28;20045;-68
2022/10/09 01:11:59;;;;;;;7.13;2.47;;;9.60;99.90;;;;;;5073402;28;20271;-68
2022/10/09 01:14:36;;;;;;;6.70;2.57;;;9.50;99.90;;;;;;5074140;28;20670;-69
2022/10/09 01:17:13;;;;;;;7.03;2.23;;;9.60;99.90;;;;;;5073218;28;20275;-69
2022/10/09 01:20:03;;;;;;;7.40;2.53;;;9.50;99.90;;;;;;5056378;28;20326;-69
2022/10/09 01:22:57;;;;;;;9.17;2.77;;;9.50;99.90;;;;;;5073209;28;20279;-69
2022/10/09 01:25:47;;;;;;;9.00;3.13;;;9.50;99.90;;;;;;5073820;28;20291;-68
2022/10/09 01:28:14;;;;;;;6.53;2.47;;;9.50;99.90;;;;;;5055619;28;20368;-68
2022/10/09 01:30:41;;;;;;;11.47;2.60;;;9.50;99.90;;;;;;5073059;28;20298;-68
2022/10/09 01:33:07;;;;;;;7.13;2.20;;;9.40;99.90;;;;;;5073102;28;20279;-69
2022/10/09 01:35:33;;;;;;;6.40;2.20;;;9.40;99.90;;;;;;5073339;28;20348;-68
2022/10/09 01:38:01;;;;;;;7.10;2.43;;;9.40;99.90;;;;;;5073385;28;20354;-69
2022/10/09 01:40:28;;;;;;;6.77;2.43;;;9.40;99.90;;;;;;5073090;28;20318;-68
2022/10/09 01:42:55;;;;;;;10.93;2.67;;;9.30;99.90;;;;;;5073062;28;20282;-68
2022/10/09 01:45:20;;;;;;;9.57;2.33;;;9.30;99.90;;;;;;5073164;28;20352;-68
2022/10/09 01:47:46;;;;;;;7.77;2.60;;;9.30;99.90;;;;;;5073039;28;20275;-68
2022/10/09 01:50:32;;;;;;;6.67;2.40;;;9.20;99.90;;;;;;5072841;28;20040;-69
2022/10/09 01:53:08;;;;;;;11.53;3.03;;;9.30;99.90;;;;;;5072477;28;20088;-69
2022/10/09 01:56:01;;;;;;;6.27;1.83;;;9.20;99.90;;;;;;5075788;28;20761;-68
2022/10/09 01:58:40;;;;;;;7.50;2.50;;;9.30;99.90;;;;;;5077510;28;20333;-69
2022/10/09 02:01:34;;;;;;;8.27;2.67;;;9.20;99.90;;;;;;5076920;28;20279;-69
2022/10/09 02:04:03;;;;;;;9.93;2.30;;;9.20;99.90;;;;;;5066963;28;20304;-68
2022/10/09 02:06:30;;;;;;;8.63;2.33;;;9.20;99.90;;;;;;5058840;28;20282;-68
2022/10/09 02:08:57;;;;;;;10.33;2.67;;;9.10;99.90;;;;;;5076326;28;20762;-69
2022/10/09 02:11:26;;;;;;;13.03;2.50;;;9.10;99.90;;;;;;5076426;28;20282;-68
2022/10/09 02:13:53;;;;;;;9.57;2.67;;;9.10;99.90;;;;;;5076356;28;20745;-69
2022/10/09 02:16:34;;;;;;;9.37;2.40;;;9.00;99.90;;;;;;5077088;28;20286;-68
2022/10/09 02:19:06;;;;;;;6.93;2.37;;;9.10;99.90;;;;;;5076265;28;20282;-68
2022/10/09 02:21:55;;;;;;;6.23;2.43;;;9.00;99.90;;;;;;5076802;28;20289;-68
2022/10/09 02:24:22;;;;;;;7.57;2.30;;;9.00;99.90;;;;;;5076334;28;20309;-68
2022/10/09 02:26:50;;;;;;;8.83;2.60;;;9.00;99.90;;;;;;5076100;28;20335;-68
2022/10/09 02:29:18;;;;;;;11.97;2.47;;;9.00;99.90;;;;;;5075686;28;20328;-68
2022/10/09 02:31:44;;;;;;;10.57;3.13;;;8.90;99.90;;;;;;5076357;28;20305;-68
2022/10/09 02:34:15;;;;;;;11.00;2.70;;;8.90;99.90;;;;;;5076528;28;20340;-69
2022/10/09 02:36:41;;;;;;;10.03;2.63;;;8.90;99.90;;;;;;5076328;28;20267;-68
2022/10/09 02:39:07;;;;;;;9.03;2.90;;;9.00;99.90;;;;;;5058828;28;20865;-68
2022/10/09 02:41:33;;;;;;;6.07;2.70;;;8.90;99.90;;;;;;5075907;28;20755;-68
2022/10/09 02:43:59;;;;;;;9.13;3.00;;;8.90;99.90;;;;;;5058845;28;20286;-68
2022/10/09 02:46:24;;;;;;;9.47;2.87;;;8.90;99.90;;;;;;5076295;28;20070;-68
2022/10/09 02:48:50;;;;;;;7.73;3.13;;;8.90;99.90;;;;;;5076329;28;20154;-68
2022/10/09 02:51:16;;;;;;;9.33;3.30;;;8.80;99.90;;;;;;5075707;28;20051;-69
2022/10/09 02:53:42;;;;;;;10.33;3.40;;;8.90;99.90;;;;;;5076293;28;20048;-68
2022/10/09 02:56:08;;;;;;;8.50;3.53;;;8.80;99.90;;;;;;5075689;28;20076;-68
2022/10/09 02:58:35;;;;;;;9.13;3.50;;;8.90;99.90;;;;;;5075567;28;20808;-68
2022/10/09 03:01:01;;;;;;;10.43;3.50;;;8.90;99.90;;;;;;5075469;28;20067;-69
2022/10/09 03:03:27;;;;;;;10.20;3.50;;;8.90;99.90;;;;;;5075522;28;20275;-68
2022/10/09 03:06:10;;;;;;;8.77;3.20;;;8.80;99.90;;;;;;5058324;28;20293;-69
2022/10/09 03:08:39;;;;;;;11.07;3.63;;;8.80;99.90;;;;;;5075477;28;20101;-69
2022/10/09 03:11:05;;;;;;;11.67;4.13;;;8.80;99.90;;;;;;5057484;28;20299;-69
2022/10/09 03:13:31;;;;;;;8.10;3.40;;;8.90;99.90;;;;;;5076144;28;20290;-68
2022/10/09 03:16:11;;;;;;;8.77;3.63;;;8.80;99.90;;;;;;5075353;28;20287;-68
2022/10/09 03:18:37;;;;;;;11.57;4.20;;;8.80;99.90;;;;;;5076121;28;20040;-68
2022/10/09 03:21:12;;;;;;;9.07;4.27;;;8.80;99.90;;;;;;5075804;28;20315;-69
2022/10/09 03:23:38;;;;;;;7.82;3.08;;;8.70;99.90;;;;;;5075042;28;20349;-69
2022/10/09 03:26:06;;;;;;;10.07;4.10;;;8.80;99.90;;;;;;5058264;28;20061;-68
2022/10/09 03:28:35;;;;;;;15.00;4.37;;;8.80;99.90;;;;;;5057280;28;20285;-68
2022/10/09 03:31:01;;;;;;;10.07;3.97;;;8.80;99.90;;;;;;5075726;28;20357;-69
2022/10/09 03:33:27;;;;;;;9.97;3.97;;;8.70;99.90;;;;;;5074946;28;20287;-69
2022/10/09 03:35:52;;;;;;;10.63;4.23;;;8.70;99.90;;;;;;5075538;28;20079;-68
2022/10/09 03:38:18;;;;;;;11.53;4.43;;;8.80;99.90;;;;;;5074846;28;20041;-69
2022/10/09 03:40:44;;;;;;;14.53;5.23;;;8.70;99.90;;;;;;5057162;28;20098;-68
2022/10/09 03:43:10;;;;;;;8.37;4.87;;;;;;;;;;5057373;28;20093;-69
2022/10/09 03:45:39;;;;;;;12.00;4.97;;;8.70;99.90;;;;;;5075405;28;20048;-69
2022/10/09 03:48:05;;;;;;;9.83;5.17;;;8.70;99.90;;;;;;5074615;28;20286;-69
2022/10/09 03:50:31;;;;;;;10.13;5.17;;;8.70;99.90;;;;;;5074474;28;20302;-68
2022/10/09 03:52:57;;;;;;;14.63;6.17;;;8.80;99.90;;;;;;5074524;28;20283;-68
2022/10/09 03:55:22;;;;;;;11.07;5.10;;;8.70;99.90;;;;;;5074788;28;20048;-68
2022/10/09 03:57:48;;;;;;;13.47;5.30;;;8.70;99.90;;;;;;5074375;28;20082;-68
2022/10/09 04:00:14;;;;;;;10.60;5.17;;;8.70;99.90;;;;;;5074650;28;20043;-68
2022/10/09 04:02:39;;;;;;;15.90;5.57;;;8.70;99.90;;;;;;5074934;28;20435;-68
2022/10/09 04:05:06;;;;;;;12.33;5.20;;;8.70;99.90;;;;;;5056474;28;20048;-69
2022/10/09 04:07:31;;;;;;;10.37;5.33;;;8.60;99.90;;;;;;5074284;28;20049;-68
2022/10/09 04:09:57;;;;;;;14.03;5.23;;;8.60;99.90;;;;;;5074126;28;20295;-68
2022/10/09 04:12:23;;;;;;;10.67;4.77;;;8.70;99.90;;;;;;5074166;28;20050;-68
2022/10/09 04:14:48;;;;;;;11.20;5.33;;;8.70;99.90;;;;;;5056544;28;20049;-68
2022/10/09 04:17:14;;;;;;;12.87;5.13;;;8.70;99.90;;;;;;5055939;28;20041;-68
2022/10/09 04:19:40;;;;;;;10.07;5.00;;;8.70;99.90;;;;;;5056474;28;20044;-68
2022/10/09 04:22:05;;;;;;;11.17;5.43;;;8.60;99.90;;;;;;5056666;28;20102;-71
2022/10/09 04:24:31;;;;;;;10.47;5.20;;;8.60;99.90;;;;;;5073603;28;20421;-68
2022/10/09 04:26:57;;;;;;;10.90;4.77;;;8.50;99.90;;;;;;5073782;28;20182;-68
2022/10/09 04:29:22;;;;;;;8.83;5.20;;;8.50;99.90;;;;;;5040122;28;20040;-69
2022/10/09 04:31:48;;;;;;;12.73;5.40;;;8.50;99.90;;;;;;5074251;28;20059;-68
2022/10/09 04:34:14;;;;;;;13.90;5.53;;;8.50;99.90;;;;;;5073935;28;20045;-69
2022/10/09 04:36:40;;;;;;;13.70;7.87;;;8.50;99.90;;;;;;5073902;28;20044;-68
2022/10/09 04:39:06;;;;;;;13.73;6.80;;;8.50;99.90;;;;;;5073689;28;20358;-68
2022/10/09 04:41:31;;;;;;;11.07;5.83;;;8.50;99.90;;;;;;5073592;28;20110;-68
2022/10/09 04:43:57;;;;;;;12.00;5.63;;;8.40;99.90;;;;;;5074117;28;20131;-68
2022/10/09 04:46:23;;;;;;;11.37;5.60;;;8.40;99.90;;;;;;5055660;28;20052;-68
2022/10/09 04:48:49;;;;;;;9.57;5.27;;;8.40;99.90;;;;;;5073625;28;20395;-68
2022/10/09 04:51:16;;;;;;;11.97;5.03;;;8.40;99.90;;;;;;5073442;28;20378;-69
2022/10/09 04:53:43;;;;;;;10.67;5.90;;;8.40;99.90;;;;;;5073414;28;20094;-68
2022/10/09 04:56:12;;;;;;;12.13;5.23;;;8.50;99.90;;;;;;5055618;28;20278;-68
2022/10/09 04:58:39;;;;;;;12.10;5.77;;;8.40;99.90;;;;;;5073477;28;20287;-68
2022/10/09 05:01:10;;;;;;;9.07;5.03;;;8.40;99.90;;;;;;5073918;28;20752;-68
2022/10/09 05:03:36;;;;;;;10.73;5.43;;;8.40;99.90;;;;;;5073441;28;20313;-68
2022/10/09 05:06:05;;;;;;;12.80;5.43;;;8.40;99.90;;;;;;5073420;28;20358;-68
2022/10/09 05:08:31;;;;;;;11.40;5.20;;;8.40;99.90;;;;;;5073306;28;20309;-68
2022/10/09 05:11:04;;;;;;;11.47;6.17;;;8.40;99.90;;;;;;5055474;28;20781;-68
2022/10/09 05:13:33;;;;;;;13.00;5.97;;;8.30;99.90;;;;;;5074197;28;20350;-68
2022/10/09 05:16:08;;;;;;;10.13;5.17;;;8.40;99.90;;;;;;5073282;28;20282;-68
2022/10/09 05:18:34;;;;;;;10.75;5.43;;;8.30;99.90;;;;;;5073383;28;20291;-68
2022/10/09 05:21:04;;;;;;;10.27;5.60;;;8.30;99.90;;;;;;5073320;28;20051;-68
2022/10/09 05:23:31;;;;;;;9.87;5.40;;;8.30;99.90;;;;;;5055605;28;20326;-68
2022/10/09 05:25:59;;;;;;;8.57;5.00;;;8.30;99.90;;;;;;5055637;28;20286;-68
2022/10/09 05:28:25;;;;;;;10.57;5.03;;;8.30;99.90;;;;;;5056014;28;20299;-68
2022/10/09 05:30:51;;;;;;;10.53;5.00;;;8.30;99.90;;;;;;5076912;28;20307;-68
2022/10/09 05:33:17;;;;;;;12.93;5.90;;;8.30;99.90;;;;;;5059455;28;20078;-68
2022/10/09 05:35:52;;;;;;;10.63;6.40;;;8.30;99.90;;;;;;5077180;28;20079;-68
2022/10/09 05:38:18;;;;;;;11.27;5.70;;;8.30;99.90;;;;;;5077423;28;20454;-68
2022/10/09 05:40:54;;;;;;;8.13;4.47;;;8.30;99.90;;;;;;5077141;28;20302;-68
2022/10/09 05:43:28;;;;;;;10.97;5.00;;;8.30;99.90;;;;;;5077569;28;20362;-69
2022/10/09 05:45:54;;;;;;;12.40;5.70;;;8.20;99.90;;;;;;5059395;28;20283;-68
2022/10/09 05:48:21;;;;;;;10.70;4.87;;;8.30;99.90;;;;;;5076910;28;20312;-69
2022/10/09 05:50:47;;;;;;;10.13;5.20;;;8.30;99.90;;;;;;5076796;28;20041;-68
2022/10/09 05:53:13;;;;;;;11.07;5.47;;;8.30;99.90;;;;;;5076713;28;20287;-68
2022/10/09 05:55:39;;;;;;;9.17;4.87;;;8.30;99.90;;;;;;5076906;28;20685;-68
2022/10/09 05:58:04;;;;;;;8.70;4.80;;;8.30;99.90;;;;;;5076721;28;20282;-69
2022/10/09 06:00:30;;;;;;;10.43;5.30;;;8.20;99.90;;;;;;5076654;28;20044;-68
2022/10/09 06:02:56;;;;;;;8.33;5.30;;;8.20;99.90;;;;;;5076616;28;20048;-68
2022/10/09 06:05:22;;;;;;;9.73;5.23;;;8.20;99.90;;;;;;5076872;28;20098;-68
2022/10/09 06:07:48;;;;;;;9.80;5.53;;;8.30;99.90;;;;;;5076564;28;20751;-68
2022/10/09 06:10:14;;;;;;;9.10;5.37;;;8.30;99.90;;;;;;5076506;28;20040;-68
2022/10/09 06:12:39;;;;;;;10.40;4.90;;;8.30;99.90;;;;;;5076493;28;20763;-68
2022/10/09 06:15:06;;;;;;;10.47;5.63;;;8.30;99.90;;;;;;5076765;28;20044;-68
2022/10/09 06:17:32;;;;;;;9.87;5.20;;;8.30;99.90;;;;;;5058322;28;20507;-68
2022/10/09 06:19:57;;;;;;;10.87;5.93;;;8.30;99.90;;;;;;5076365;28;20286;-68
2022/10/09 06:22:23;;;;;;;11.03;5.03;;;8.30;99.90;;;;;;5058531;28;20278;-69
2022/10/09 06:24:49;;;;;;;11.23;5.03;;;8.30;99.90;;;;;;5076433;28;20048;-68
2022/10/09 06:27:15;;;;;;;8.90;5.13;;;8.40;99.90;;;;;;5076222;28;20036;-68
2022/10/09 06:29:40;;;;;;;9.80;5.40;;;8.30;99.90;;;;;;5076132;28;20055;-68
2022/10/09 06:32:06;;;;;;;9.97;5.67;;;8.30;99.90;;;;;;5076395;28;20547;-68
2022/10/09 06:34:31;;;;;;;11.67;5.37;;;8.30;99.90;;;;;;5076061;28;20071;-68
2022/10/09 06:36:57;;;;;;;9.20;5.30;;;8.40;99.90;;;;;;5076026;28;20049;-68
2022/10/09 06:39:25;;;;;;;17.27;6.20;;;8.40;99.90;;;;;;5075985;28;20045;-69
2022/10/09 06:41:51;;;;;;;12.73;5.93;;;8.40;99.90;;;;;;5075231;28;20127;-68
2022/10/09 06:44:17;;;;;;;10.27;5.53;;;8.40;99.90;;;;;;5076481;28;20325;-68
2022/10/09 06:46:44;;;;;;;15.80;6.57;;;8.40;99.90;;;;;;5076631;28;20311;-68
2022/10/09 06:49:11;;;;;;;11.20;4.93;;;8.50;99.90;;;;;;5075696;28;20318;-68
2022/10/09 06:51:37;;;;;;;9.07;5.53;;;8.50;99.90;;;;;;5076059;28;20286;-68
2022/10/09 06:54:08;;;;;;;9.47;5.77;;;8.60;99.90;;;;;;5075693;28;20283;-68
2022/10/09 06:56:34;;;;;;;11.07;5.73;;;8.60;99.90;;;;;;5076228;28;20337;-69
2022/10/09 06:59:01;;;;;;;11.50;5.20;;;8.60;99.90;;;;;;5075731;28;20283;-68
2022/10/09 07:01:31;;;;;;;11.77;6.33;;;8.60;99.90;;;;;;5075883;28;20047;-69
2022/10/09 07:04:12;;;;;;;15.20;5.17;;;8.70;99.90;;;;;;5075809;28;20279;-69
2022/10/09 07:06:43;;;;;;;10.20;5.10;;;8.80;99.90;;;;;;5075530;28;20283;-68
2022/10/09 07:09:11;;;;;;;10.07;4.97;;;8.80;99.90;;;;;;5076059;28;20560;-68
2022/10/09 07:11:39;;;;;;;9.83;4.70;;;8.90;99.90;;;;;;5058410;28;20330;-68
2022/10/09 07:14:07;;;;;;;11.20;4.47;;;8.90;99.90;;;;;;5075258;28;20282;-68
2022/10/09 07:16:39;;;;;;;10.77;5.17;;;9.00;99.90;;;;;;5075091;28;20291;-68
2022/10/09 07:19:09;;;;;;;10.37;4.87;;;9.00;99.90;;;;;;5076131;28;20290;-68
2022/10/09 07:21:36;;;;;;;9.57;5.93;;;9.10;99.90;;;;;;5075977;28;20286;-68
2022/10/09 07:24:04;;;;;;;11.30;5.10;;;9.10;99.90;;;;;;5074880;28;20295;-69
2022/10/09 07:26:32;;;;;;;16.63;7.90;;;9.20;99.90;;;;;;5075612;28;20592;-69
2022/10/09 07:28:58;;;;;;;12.00;6.17;;;9.20;99.90;;;;;;5075730;28;20283;-69
2022/10/09 07:31:23;;;;;;;12.30;5.53;;;9.30;99.90;;;;;;5074838;28;20313;-69
2022/10/09 07:33:51;;;;;;;12.77;4.70;;;9.40;99.90;;;;;;5075411;28;20571;-69
2022/10/09 07:36:17;;;;;;;8.50;4.90;;;9.50;99.90;;;;;;5056968;28;20059;-69
2022/10/09 07:38:43;;;;;;;10.43;4.43;;;9.60;99.90;;;;;;5074875;28;20639;-69
2022/10/09 07:41:11;;;;;;;8.27;4.97;;;9.70;99.90;;;;;;5075347;28;20715;-69
2022/10/09 07:43:39;;;;;;;8.53;4.73;;;9.80;99.90;;;;;;5074680;28;20287;-69
2022/10/09 07:46:07;;;;;;;10.47;4.77;;;9.90;99.90;;;;;;5057010;28;20325;-69
2022/10/09 07:48:34;;;;;;;11.37;5.03;;;10.00;99.90;;;;;;5074559;28;20706;-69
2022/10/09 07:51:11;;;;;;;11.63;5.10;;;10.10;99.90;;;;;;5074421;28;20682;-69
2022/10/09 07:53:37;;;;;;;11.33;4.60;;;10.20;99.90;;;;;;5055759;28;20283;-69
2022/10/09 07:56:03;;;;;;;10.57;4.17;;;10.20;99.90;;;;;;5074494;28;20287;-69
2022/10/09 07:58:29;;;;;;;10.60;4.30;;;10.30;99.90;;;;;;5074087;28;20642;-69
2022/10/09 08:00:55;;;;;;;12.33;4.73;;;10.40;99.90;;;;;;5074343;28;20279;-69
2022/10/09 08:03:21;;;;;;;8.20;3.87;;;10.40;99.90;;;;;;5057243;28;20294;-69
2022/10/09 08:05:54;;;;;;;12.40;4.50;;;10.40;99.90;;;;;;5075033;28;20036;-68
2022/10/09 08:08:20;;;;;;;10.33;4.23;;;10.50;99.90;;;;;;5074749;28;20285;-68
2022/10/09 08:10:45;;;;;;;15.03;4.70;;;10.50;99.90;;;;;;5074312;28;20306;-69
2022/10/09 08:13:11;;;;;;;9.13;3.70;;;10.60;99.90;;;;;;5074209;28;20044;-69
2022/10/09 08:15:41;;;;;;;12.47;3.87;;;10.60;99.90;;;;;;5074618;28;20044;-69
2022/10/09 08:18:10;;;;;;;13.23;4.43;;;10.60;99.90;;;;;;5074152;28;20099;-69
2022/10/09 08:20:36;;;;;;;7.93;3.60;;;10.60;99.90;;;;;;5073663;28;20794;-69
2022/10/09 08:23:03;;;;;;;9.50;3.60;;;10.70;99.90;;;;;;5073949;28;20279;-69
2022/10/09 08:25:28;;;;;;;11.70;3.87;;;10.70;99.90;;;;;;5039417;28;20057;-69
2022/10/09 08:27:55;;;;;;;11.63;3.80;;;10.80;99.90;;;;;;5036336;28;20609;-68
2022/10/09 08:30:21;;;;;;;9.57;3.80;;;10.80;99.90;;;;;;5054380;28;20033;-69
2022/10/09 08:32:46;;;;;;;12.37;4.60;;;10.90;99.90;;;;;;5036509;28;20290;-69
2022/10/09 08:35:12;;;;;;;11.50;3.90;;;10.90;99.90;;;;;;5053916;28;20099;-75
2022/10/09 08:37:38;;;;;;;14.83;3.90;;;11.00;99.90;;;;;;5053779;28;20482;-70
2022/10/09 08:40:06;;;;;;;12.10;3.50;;;11.00;99.90;;;;;;5053753;28;20045;-70
2022/10/09 08:42:46;;;;;;;13.30;4.00;;;11.10;99.90;;;;;;5053727;28;20318;-69
2022/10/09 08:45:15;;;;;;;15.63;5.10;;;11.10;99.90;;;;;;5053645;28;20740;-69
2022/10/09 08:47:46;;;;;;;11.50;3.50;;;11.20;99.90;;;;;;5053581;28;20326;-69
2022/10/09 08:50:19;;;;;;;9.67;3.70;;;11.20;99.90;;;;;;5053468;28;20304;-69
2022/10/09 08:52:57;;;;;;;9.53;3.93;;;11.30;99.90;;;;;;5053532;28;20283;-70
2022/10/09 08:55:27;;;;;;;12.83;4.23;;;11.30;99.90;;;;;;5036023;28;20663;-70
2022/10/09 08:58:01;;;;;;;10.53;4.03;;;11.40;99.90;;;;;;5035891;28;20330;-70
2022/10/09 09:00:34;;;;;;;10.60;3.50;;;11.40;99.90;;;;;;5054285;28;20283;-69
2022/10/09 09:03:21;;;;;;;8.97;3.47;;;11.50;99.90;;;;;;5053116;28;20049;-69
2022/10/09 09:05:56;;;;;;;7.47;2.40;;;11.60;99.90;;;;;;5053356;28;20276;-70
2022/10/09 09:08:27;;;;;;;11.00;2.97;;;11.60;99.90;;;;;;5053863;28;20620;-69
2022/10/09 09:11:30;;;;;;;13.10;2.73;;;11.70;99.90;;;;;;5053245;28;20045;-69
2022/10/09 09:14:10;;;;;;;11.27;3.30;;;11.70;99.90;;;;;;5053819;28;20367;-70
2022/10/09 09:16:53;;;;;;;10.77;3.20;;;11.70;99.90;;;;;;5036538;28;20292;-69
2022/10/09 09:19:55;;;;;;;9.33;2.97;;;11.80;99.90;;;;;;5053329;28;20668;-68
2022/10/09 09:22:23;;;;;;;10.40;3.00;;;11.80;99.90;;;;;;5053333;28;20362;-70
2022/10/09 09:24:54;;;;;;;10.63;3.63;;;11.90;99.90;;;;;;5064245;28;20322;-71
2022/10/09 09:27:27;;;;;;;8.80;3.17;;;11.90;99.90;;;;;;5074132;28;20279;-71
2022/10/09 09:30:30;;;;;;;12.77;3.10;;;11.90;99.90;;;;;;5073886;28;20307;-71
2022/10/09 09:33:10;;;;;;;10.50;3.10;;;11.90;99.90;;;;;;5042043;28;20373;-72
2022/10/09 09:35:45;;;;;;;10.07;3.23;;;12.00;99.90;;;;;;5073052;28;20290;-72
2022/10/09 09:38:15;;;;;;;8.63;3.23;;;12.10;99.90;;;;;;5073582;28;20283;-71
2022/10/09 09:40:43;;;;;;;9.83;3.40;;;12.10;99.90;;;;;;5055171;28;20320;-73
2022/10/09 09:43:17;;;;;;;9.07;3.70;;;12.20;99.90;;;;;;5073364;28;20344;-71
2022/10/09 09:45:43;;;;;;;11.73;4.27;;;12.20;99.90;;;;;;5073022;28;20287;-72
2022/10/09 09:48:24;;;;;;;9.67;3.23;;;12.30;99.90;;;;;;5072987;28;20279;-71
2022/10/09 09:50:53;;;;;;;11.00;3.90;;;12.30;99.90;;;;;;5072945;28;20335;-72
2022/10/09 09:53:34;;;;;;;9.07;3.10;;;12.30;99.90;;;;;;5073219;28;20301;-72
2022/10/09 09:56:00;;;;;;;11.63;3.10;;;12.30;99.90;;;;;;5072896;28;20282;-71
2022/10/09 09:58:33;;;;;;;11.50;3.40;;;12.40;99.90;;;;;;5055947;28;20275;-71
2022/10/09 10:01:02;;;;;;;9.03;2.53;;;12.40;99.90;;;;;;5054892;28;20041;-68
2022/10/09 10:03:28;;;;;;;10.90;2.53;;;12.40;99.90;;;;;;5072966;28;20386;-73
2022/10/09 10:05:54;;;;;;;13.60;2.73;;;12.50;99.90;;;;;;5072671;28;20310;-73
2022/10/09 10:08:29;;;;;;;9.17;2.20;;;12.60;99.90;;;;;;5073350;28;20731;-71
2022/10/09 10:11:00;;;;;;;8.55;2.67;;;12.70;99.90;;;;;;5073463;28;20033;-71
2022/10/09 10:13:26;;;;;;;13.60;2.50;;;12.70;99.90;;;;;;5072502;28;20048;-70
2022/10/09 10:15:54;;;;;;;10.43;2.93;;;12.60;99.90;;;;;;5073957;28;20294;-69
2022/10/09 10:18:27;;;;;;;8.70;3.20;;;12.70;99.90;;;;;;5058362;28;20533;-69
2022/10/09 10:21:07;;;;;;;10.03;3.17;;;12.60;99.90;;;;;;5076210;28;20278;-70
2022/10/09 10:23:54;;;;;;;10.47;2.80;;;12.60;99.90;;;;;;5075918;28;20283;-69
2022/10/09 10:26:51;;;;;;;8.07;2.30;;;12.70;99.90;;;;;;5076921;28;20270;-72
2022/10/09 10:29:29;;;;;;;9.73;2.37;;;12.80;99.90;;;;;;5058514;28;20331;-74
2022/10/09 10:32:31;;;;;;;7.70;2.43;;;12.80;99.90;;;;;;5075816;28;20358;-74
2022/10/09 10:35:05;;;;;;;13.93;2.67;;;12.90;99.90;;;;;;5076758;28;20307;-69
2022/10/09 10:37:48;;;;;;;8.53;2.43;;;12.90;99.90;;;;;;5058258;28;20329;-68
2022/10/09 10:40:23;;;;;;;8.63;2.10;;;13.00;99.90;;;;;;5076422;28;20321;-69
2022/10/09 10:43:05;;;;;;;8.45;2.03;;;13.00;99.90;;;;;;5058668;28;20334;-69
2022/10/09 10:45:56;;;;;;;10.70;2.30;;;13.00;99.90;;;;;;5058284;28;20084;-69
2022/10/09 10:48:30;;;;;;;8.33;1.83;;;13.00;99.90;;;;;;5076506;28;20326;-69
2022/10/09 10:51:21;;;;;;;10.07;2.10;;;13.00;99.90;;;;;;5076362;28;20295;-70
2022/10/09 10:54:04;;;;;;;8.47;1.97;;;13.00;99.90;;;;;;5076858;28;20584;-69
2022/10/09 10:56:39;;;;;;;7.63;1.97;;;13.00;99.90;;;;;;5075702;28;20333;-69
2022/10/09 10:59:41;;;;;;;6.32;1.70;;;13.00;99.90;;;;;;5041644;28;20755;-71
2022/10/09 11:02:33;;;;;;;9.50;2.03;;;13.00;99.90;;;;;;5075626;28;20056;-68
2022/10/09 11:05:21;;;;;;;9.67;2.53;;;13.10;99.90;;;;;;5057733;28;20341;-73
2022/10/09 11:07:52;;;;;;;8.63;1.93;;;13.10;99.90;;;;;;5075620;28;20275;-69
2022/10/09 11:10:45;;;;;;;8.03;2.10;;;13.10;99.90;;;;;;5075479;28;20382;-69
2022/10/09 11:13:20;;;;;;;10.70;2.97;;;13.10;99.90;;;;;;5075999;28;20325;-70
2022/10/09 11:16:06;;;;;;;8.95;1.90;;;13.10;99.90;;;;;;5075991;28;20340;-69
2022/10/09 11:18:44;;;;;;;9.67;2.13;;;13.20;99.90;;;;;;5075038;28;20485;-69
2022/10/09 11:21:35;;;;;;;11.20;2.40;;;13.30;99.90;;;;;;5057635;28;20310;-69
2022/10/09 11:24:33;;;;;;;5.73;1.70;;;13.30;99.90;;;;;;5041892;28;20284;-70
2022/10/09 11:27:17;;;;;;;7.97;2.00;;;13.40;99.90;;;;;;5020566;28;20334;-73
2022/10/09 11:29:52;;;;;;;6.97;1.73;;;13.40;99.90;;;;;;5055092;28;20299;-70
2022/10/09 11:32:38;;;;;;;8.43;2.05;;;13.40;99.90;;;;;;5037798;28;20299;-71
2022/10/09 11:35:14;;;;;;;9.17;2.17;;;13.50;99.90;;;;;;5055850;28;20049;-69
2022/10/09 11:37:44;;;;;;;6.83;1.73;;;13.60;99.90;;;;;;5055047;28;20286;-67
2022/10/09 11:40:22;;;;;;;8.37;1.80;;;13.60;99.90;;;;;;5037153;28;20274;-68
2022/10/09 11:42:59;;;;;;;9.17;2.27;;;13.60;99.90;;;;;;5054848;28;20283;-68
2022/10/09 11:45:51;;;;;;;9.30;2.77;;;13.70;99.90;;;;;;5054823;28;20732;-68
2022/10/09 11:48:31;;;;;;;9.37;2.10;;;13.70;99.90;;;;;;5054700;28;20317;-68
2022/10/09 11:51:07;;;;;;;8.90;2.40;;;13.70;99.90;;;;;;5054672;28;20765;-68
2022/10/09 11:53:35;;;;;;;9.80;2.77;;;13.70;99.90;;;;;;5054644;28;20288;-68
2022/10/09 11:56:06;;;;;;;8.67;2.63;;;13.70;99.90;;;;;;5054832;28;20681;-68
2022/10/09 11:58:32;;;;;;;12.10;2.80;;;13.80;99.90;;;;;;5037017;28;20628;-68
2022/10/09 12:01:17;;;;;;;9.83;3.10;;;13.80;99.90;;;;;;5054486;28;20282;-70
2022/10/09 12:03:43;;;;;;;12.68;2.65;;;13.80;99.90;;;;;;5054477;28;20306;-68
2022/10/09 12:06:15;;;;;;;12.40;3.47;;;13.90;99.90;;;;;;5054356;28;20041;-68
2022/10/09 12:09:02;;;;;;;10.33;2.50;;;14.00;99.90;;;;;;5036982;28;20084;-68
2022/10/09 12:11:28;;;;;;;9.60;2.43;;;14.10;99.90;;;;;;5053334;28;20309;-68
2022/10/09 12:13:57;;;;;;;7.40;2.70;;;14.10;99.90;;;;;;5054177;28;20284;-68
2022/10/09 12:16:35;;;;;;;11.10;2.77;;;14.10;99.90;;;;;;5054135;28;20275;-68
2022/10/09 12:19:28;;;;;;;9.73;2.83;;;14.10;99.90;;;;;;5054120;28;20287;-71
2022/10/09 12:21:59;;;;;;;9.43;2.40;;;14.10;99.90;;;;;;5054958;28;20306;-68
2022/10/09 12:24:38;;;;;;;13.13;3.63;;;14.10;99.90;;;;;;5061383;28;20305;-68
2022/10/09 12:27:04;;;;;;;10.40;3.00;;;14.10;99.90;;;;;;5056670;28;20670;-69
2022/10/09 12:29:42;;;;;;;11.13;2.87;;;14.10;99.90;;;;;;5073837;28;20286;-68
2022/10/09 12:32:16;;;;;;;10.43;2.80;;;14.10;99.90;;;;;;5074701;28;20294;-69
2022/10/09 12:34:48;;;;;;;9.17;2.93;;;14.10;99.90;;;;;;5073876;28;20369;-68
2022/10/09 12:37:29;;;;;;;12.87;3.13;;;14.20;99.90;;;;;;5073779;28;20357;-68
2022/10/09 12:40:06;;;;;;;6.90;2.33;;;14.20;99.90;;;;;;5074814;28;20694;-68
2022/10/09 12:42:32;;;;;;;8.67;2.63;;;14.20;99.90;;;;;;5074333;28;20274;-68
2022/10/09 12:44:58;;;;;;;8.30;2.60;;;14.20;99.90;;;;;;5074459;28;20279;-68
2022/10/09 12:47:27;;;;;;;10.60;2.40;;;14.20;99.90;;;;;;5073651;28;20109;-68
2022/10/09 12:50:01;;;;;;;7.83;2.13;;;14.20;99.90;;;;;;5073532;28;20124;-68
2022/10/09 12:52:29;;;;;;;9.52;2.47;;;14.20;99.90;;;;;;5074288;28;20309;-68
2022/10/09 12:54:55;;;;;;;8.87;2.67;;;14.30;99.90;;;;;;5055791;28;20055;-68
2022/10/09 12:57:21;;;;;;;7.43;2.30;;;14.30;99.90;;;;;;5074043;28;20322;-68
2022/10/09 12:59:48;;;;;;;9.90;2.70;;;14.30;99.90;;;;;;5073516;28;20274;-68
2022/10/09 13:02:15;;;;;;;7.97;2.07;;;14.30;99.90;;;;;;5074206;28;20358;-68
2022/10/09 13:04:41;;;;;;;9.10;2.57;;;14.30;99.90;;;;;;5073472;28;20279;-68
2022/10/09 13:07:18;;;;;;;8.60;2.13;;;14.30;99.90;;;;;;5073422;28;20275;-71